createdAt,value
2022-07-26T00:00:14.500Z,98060.41
2022-07-26T00:03:18.458Z,98062.41
2022-07-26T00:06:20.364Z,98061.69
2022-07-26T00:09:22.954Z,98055.44
2022-07-26T00:12:24.916Z,98056.84
2022-07-26T00:15:27.473Z,98057.13
2022-07-26T00:18:30.745Z,98057.13
2022-07-26T00:21:32.875Z,98059.41
2022-07-26T00:24:35.600Z,98057.09
2022-07-26T00:27:39.360Z,98056.25
2022-07-26T00:30:41.123Z,98055.00
2022-07-26T00:33:44.563Z,98058.56
2022-07-26T00:36:46.300Z,98060.66
2022-07-26T00:39:48.493Z,98055.84
2022-07-26T00:42:51.235Z,98062.25
2022-07-26T00:45:53.229Z,98065.06
2022-07-26T00:48:56.933Z,98063.34
2022-07-26T00:52:00.194Z,98056.38
2022-07-26T00:55:02.503Z,98066.19
2022-07-26T00:58:06.513Z,98065.63
2022-07-26T01:01:08.543Z,98062.34
2022-07-26T01:04:11.974Z,98067.88
2022-07-26T01:07:14.997Z,98073.56
2022-07-26T01:10:17.447Z,98072.16
2022-07-26T01:13:19.813Z,98079.66
2022-07-26T01:16:21.706Z,98071.81
2022-07-26T01:19:25.184Z,98082.06
2022-07-26T01:22:29.818Z,98076.09
2022-07-26T01:25:32.647Z,98079.75
2022-07-26T01:28:47.012Z,98086.91
2022-07-26T01:31:49.075Z,98089.47
2022-07-26T01:34:50.932Z,98085.41
2022-07-26T01:37:54.400Z,98083.22
2022-07-26T01:40:56.374Z,98085.16
2022-07-26T01:43:59.693Z,98082.47
2022-07-26T01:47:04.546Z,98086.56
2022-07-26T01:50:07.947Z,98093.94
2022-07-26T01:53:11.709Z,98095.09
2022-07-26T01:56:14.089Z,98095.47
2022-07-26T01:59:16.260Z,98099.59
2022-07-26T02:02:18.056Z,98103.00
2022-07-26T02:05:21.312Z,98094.03
2022-07-26T02:08:24.325Z,98093.56
2022-07-26T02:11:26.316Z,98089.16
2022-07-26T02:14:28.267Z,98085.59
2022-07-26T02:17:30.120Z,98089.97
2022-07-26T02:20:33.397Z,98093.78
2022-07-26T02:23:41.226Z,98096.63
2022-07-26T02:26:52.372Z,98093.47
2022-07-26T02:29:57.131Z,98091.19
2022-07-26T02:32:59.034Z,98092.81
2022-07-26T02:36:01.101Z,98092.69
2022-07-26T02:39:04.249Z,98094.66
2022-07-26T02:42:06.239Z,98098.78
2022-07-26T02:45:08.471Z,98102.56
2022-07-26T02:48:10.490Z,98105.69
2022-07-26T02:51:12.266Z,98108.09
2022-07-26T02:54:15.978Z,98113.84
2022-07-26T02:57:17.835Z,98112.84
2022-07-26T03:00:20.796Z,98117.53
2022-07-26T03:03:22.779Z,98107.88
2022-07-26T03:06:24.327Z,98113.13
2022-07-26T03:09:27.394Z,98116.06
2022-07-26T03:12:29.248Z,98123.47
2022-07-26T03:15:31.021Z,98117.06
2022-07-26T03:18:32.827Z,98130.69
2022-07-26T03:21:37.831Z,98131.81
2022-07-26T03:24:42.708Z,98126.69
2022-07-26T03:27:44.519Z,98130.50
2022-07-26T03:30:46.369Z,98129.91
2022-07-26T03:33:48.244Z,98128.47
2022-07-26T03:36:50.169Z,98127.75
2022-07-26T03:39:53.654Z,98132.38
2022-07-26T03:42:55.414Z,98131.41
2022-07-26T03:45:57.117Z,98127.25
2022-07-26T03:48:58.948Z,98131.41
2022-07-26T03:52:03.284Z,98134.25
2022-07-26T03:55:26.990Z,98139.53
2022-07-26T03:58:28.766Z,98141.38
2022-07-26T04:01:30.726Z,98145.09
2022-07-26T04:04:32.605Z,98148.06
2022-07-26T04:07:34.239Z,98146.22
2022-07-26T04:10:37.944Z,98152.59
2022-07-26T04:13:39.940Z,98142.94
2022-07-26T04:16:43.806Z,98144.00
2022-07-26T04:19:45.774Z,98147.19
2022-07-26T04:22:47.480Z,98144.25
2022-07-26T04:25:52.021Z,98140.09
2022-07-26T04:28:53.884Z,98141.81
2022-07-26T04:31:55.875Z,98142.78
2022-07-26T04:34:57.713Z,98147.34
2022-07-26T04:37:59.551Z,98147.34
2022-07-26T04:41:07.642Z,98137.53
2022-07-26T04:44:09.819Z,98145.50
2022-07-26T04:47:12.078Z,98149.19
2022-07-26T04:50:13.963Z,98156.69
2022-07-26T04:53:17.339Z,98151.72
2022-07-26T04:56:20.395Z,98155.66
2022-07-26T04:59:22.364Z,98157.00
2022-07-26T05:02:24.506Z,98153.19
2022-07-26T05:05:27.559Z,98153.31
2022-07-26T05:08:29.322Z,98155.53
2022-07-26T05:11:32.624Z,98155.63
2022-07-26T05:14:34.476Z,98160.28
2022-07-26T05:17:38.617Z,98153.91
2022-07-26T05:20:41.921Z,98155.16
2022-07-26T05:23:43.810Z,98153.44
2022-07-26T05:26:46.998Z,98158.56
2022-07-26T05:29:53.796Z,98158.56
2022-07-26T05:32:55.671Z,98158.56
2022-07-26T05:35:57.332Z,98157.25
2022-07-26T05:39:03.393Z,98152.84
2022-07-26T05:42:15.018Z,98154.66
2022-07-26T05:45:21.131Z,98158.09
2022-07-26T05:48:22.662Z,98158.94
2022-07-26T05:51:24.488Z,98155.56
2022-07-26T05:54:26.259Z,98159.13
2022-07-26T05:57:37.726Z,98164.97
2022-07-26T06:00:39.416Z,98164.00
2022-07-26T06:03:41.060Z,98169.63
2022-07-26T06:06:43.975Z,98167.66
2022-07-26T06:09:47.710Z,98168.66
2022-07-26T06:12:52.641Z,98170.75
2022-07-26T06:15:54.471Z,98172.47
2022-07-26T06:18:56.512Z,98162.28
2022-07-26T06:21:58.235Z,98174.03
2022-07-26T06:25:00.009Z,98184.69
2022-07-26T06:28:03.974Z,98183.22
2022-07-26T06:31:06.163Z,98190.06
2022-07-26T06:34:07.904Z,98187.47
2022-07-26T06:37:15.201Z,98197.06
2022-07-26T06:40:17.087Z,98191.88
2022-07-26T06:43:20.800Z,98192.59
2022-07-26T06:46:22.836Z,98197.63
2022-07-26T06:49:24.732Z,98198.56
2022-07-26T06:52:26.724Z,98203.34
2022-07-26T06:55:28.600Z,98203.97
2022-07-26T06:58:35.942Z,98193.19
2022-07-26T07:01:57.912Z,98201.00
2022-07-26T07:05:01.730Z,98198.56
2022-07-26T07:08:03.721Z,98187.88
2022-07-26T07:11:05.806Z,98197.75
2022-07-26T07:14:10.619Z,98201.41
2022-07-26T07:17:17.155Z,98195.38
2022-07-26T07:20:22.155Z,98194.81
2022-07-26T07:23:27.187Z,98193.31
2022-07-26T07:26:29.366Z,98196.53
2022-07-26T07:29:32.851Z,98198.03
2022-07-26T07:32:34.683Z,98202.94
2022-07-26T07:35:38.662Z,98205.34
2022-07-26T07:38:42.841Z,98203.78
2022-07-26T07:41:45.191Z,98209.44
2022-07-26T07:44:54.595Z,98226.72
2022-07-26T07:47:56.460Z,98219.69
2022-07-26T07:50:58.302Z,98223.34
2022-07-26T07:54:05.127Z,98219.28
2022-07-26T07:57:07.593Z,98226.25
2022-07-26T08:00:12.928Z,98217.69
2022-07-26T08:03:18.753Z,98218.63
2022-07-26T08:06:21.176Z,98216.41
2022-07-26T08:09:24.369Z,98209.84
2022-07-26T08:12:26.226Z,98224.22
2022-07-26T08:15:29.718Z,98221.44
2022-07-26T08:18:32.937Z,98226.84
2022-07-26T08:21:35.523Z,98224.06
2022-07-26T08:24:37.339Z,98217.44
2022-07-26T08:27:41.125Z,98220.03
2022-07-26T08:30:44.775Z,98228.00
2022-07-26T08:33:47.268Z,98233.66
2022-07-26T08:37:15.278Z,98239.25
2022-07-26T08:40:14.162Z,98237.22
2022-07-26T08:43:16.402Z,98238.88
2022-07-26T08:46:24.890Z,98244.03
2022-07-26T08:49:28.095Z,98235.78
2022-07-26T08:52:30.135Z,98245.19
2022-07-26T08:55:50.226Z,98259.22
2022-07-26T08:58:55.820Z,98254.50
2022-07-26T09:01:59.860Z,98258.19
2022-07-26T09:05:05.095Z,98244.22
2022-07-26T09:08:21.822Z,98247.75
2022-07-26T09:11:31.092Z,98248.75
2022-07-26T09:14:36.513Z,98250.06
2022-07-26T09:17:41.046Z,98252.31
2022-07-26T09:20:46.625Z,98250.72
2022-07-26T09:23:48.571Z,98248.88
2022-07-26T09:26:55.644Z,98247.91
2022-07-26T09:30:08.038Z,98257.59
2022-07-26T09:33:11.166Z,98257.91
2022-07-26T09:36:12.932Z,98261.47
2022-07-26T09:39:15.398Z,98266.75
2022-07-26T09:42:28.649Z,98280.16
2022-07-26T09:45:31.815Z,98277.47
2022-07-26T09:49:09.428Z,98268.06
2022-07-26T09:52:01.191Z,98276.03
2022-07-26T09:55:05.420Z,98288.03
2022-07-26T09:58:07.526Z,98293.31
2022-07-26T10:01:09.304Z,98313.22
2022-07-26T10:04:14.116Z,98317.25
2022-07-26T10:07:20.302Z,98334.81
2022-07-26T10:10:24.161Z,98350.03
2022-07-26T10:13:27.101Z,98354.56
2022-07-26T10:16:29.295Z,98358.69
2022-07-26T10:19:45.746Z,98346.91
2022-07-26T10:22:50.829Z,98344.84
2022-07-26T10:25:54.099Z,98351.66
2022-07-26T10:28:56.351Z,98360.59
2022-07-26T10:32:16.084Z,98362.03
2022-07-26T10:35:32.800Z,98368.34
2022-07-26T10:38:34.706Z,98366.16
2022-07-26T10:41:37.661Z,98374.38
2022-07-26T10:44:39.602Z,98359.50
2022-07-26T10:48:01.650Z,98370.16
2022-07-26T10:51:23.920Z,98378.88
2022-07-26T10:54:26.255Z,98375.59
2022-07-26T10:57:29.125Z,98384.94
2022-07-26T11:00:31.281Z,98381.41
2022-07-26T11:03:38.941Z,98382.28
2022-07-26T11:06:42.794Z,98382.25
2022-07-26T11:09:44.965Z,98389.97
2022-07-26T11:12:46.842Z,98392.06
2022-07-26T11:15:50.005Z,98397.44
2022-07-26T11:18:52.653Z,98398.31
2022-07-26T11:21:58.703Z,98401.47
2022-07-26T11:25:00.825Z,98403.31
2022-07-26T11:28:03.809Z,98408.50
2022-07-26T11:31:09.287Z,98405.03
2022-07-26T11:34:17.284Z,98408.53
2022-07-26T11:37:20.284Z,98410.44
2022-07-26T11:40:40.936Z,98420.75
2022-07-26T11:43:44.775Z,98417.66
2022-07-26T11:46:50.070Z,98424.41
2022-07-26T11:50:16.418Z,98427.59
2022-07-26T11:53:25.538Z,98426.69
2022-07-26T11:56:28.138Z,98424.00
2022-07-26T11:59:30.736Z,98422.28
2022-07-26T12:02:33.247Z,98434.47
2022-07-26T12:05:35.554Z,98439.84
2022-07-26T12:08:45.937Z,98445.13
2022-07-26T12:11:49.148Z,98450.66
2022-07-26T12:15:01.046Z,98441.56
2022-07-26T12:18:02.771Z,98441.31
2022-07-26T12:21:07.054Z,98446.13
2022-07-26T12:24:12.732Z,98446.03
2022-07-26T12:27:16.222Z,98449.72
2022-07-26T12:30:18.489Z,98452.78
2022-07-26T12:33:20.520Z,98448.22
2022-07-26T12:36:28.468Z,98441.84
2022-07-26T12:39:32.253Z,98450.19
2022-07-26T12:42:39.022Z,98453.75
2022-07-26T12:45:40.902Z,98445.53
2022-07-26T12:48:45.918Z,98434.56
2022-07-26T12:51:47.921Z,98451.34
2022-07-26T12:54:52.349Z,98445.69
2022-07-26T12:57:55.871Z,98441.53
2022-07-26T13:00:59.199Z,98437.38
2022-07-26T13:04:01.255Z,98447.53
2022-07-26T13:07:03.466Z,98439.56
2022-07-26T13:13:32.104Z,98445.56
2022-07-26T13:16:34.002Z,98448.91
2022-07-26T13:19:36.344Z,98455.75
2022-07-26T13:22:38.124Z,98451.47
2022-07-26T13:25:41.827Z,98450.38
2022-07-26T13:28:44.936Z,98454.06
2022-07-26T13:31:51.802Z,98453.44
2022-07-26T13:34:53.512Z,98462.09
2022-07-26T13:37:55.445Z,98463.56
2022-07-26T13:40:58.688Z,98468.34
2022-07-26T13:44:00.794Z,98461.34
2022-07-26T13:47:02.626Z,98453.13
2022-07-26T13:50:04.814Z,98460.63
2022-07-26T13:53:09.978Z,98461.84
2022-07-26T13:56:13.383Z,98464.06
2022-07-26T13:59:15.748Z,98460.84
2022-07-26T14:02:17.818Z,98463.69
2022-07-26T14:05:20.019Z,98464.94
2022-07-26T14:08:22.200Z,98469.69
2022-07-26T14:11:25.717Z,98481.72
2022-07-26T14:14:27.582Z,98471.75
2022-07-26T14:17:29.452Z,98473.72
2022-07-26T14:20:31.878Z,98477.03
2022-07-26T14:23:33.831Z,98474.47
2022-07-26T14:26:38.252Z,98481.94
2022-07-26T14:29:40.165Z,98483.13
2022-07-26T14:32:42.271Z,98480.94
2022-07-26T14:35:47.019Z,98485.47
2022-07-26T14:38:50.121Z,98495.28
2022-07-26T14:41:53.488Z,98501.63
2022-07-26T14:44:55.588Z,98505.13
2022-07-26T14:47:57.503Z,98511.63
2022-07-26T14:51:09.239Z,98510.97
2022-07-26T14:54:13.338Z,98516.44
2022-07-26T14:57:21.284Z,98517.69
2022-07-26T15:00:26.975Z,98526.66
2022-07-26T15:03:33.871Z,98525.56
2022-07-26T15:06:36.332Z,98521.34
2022-07-26T15:09:38.554Z,98536.56
2022-07-26T15:12:45.725Z,98533.47
2022-07-26T15:15:47.943Z,98527.34
2022-07-26T15:18:51.342Z,98533.34
2022-07-26T15:21:54.344Z,98539.50
2022-07-26T15:24:56.478Z,98541.69
2022-07-26T15:27:59.805Z,98547.72
2022-07-26T15:31:02.196Z,98546.31
2022-07-26T15:34:03.963Z,98550.66
2022-07-26T15:37:07.570Z,98557.00
2022-07-26T15:40:09.791Z,98560.34
2022-07-26T15:43:20.955Z,98553.91
2022-07-26T15:46:25.516Z,98557.03
2022-07-26T15:49:28.654Z,98549.38
2022-07-26T15:52:30.581Z,98544.66
2022-07-26T15:55:35.616Z,98540.09
2022-07-26T15:58:38.983Z,98533.72
2022-07-26T16:01:40.676Z,98519.94
2022-07-26T16:04:42.330Z,98505.59
2022-07-26T16:07:44.625Z,98488.97
2022-07-26T16:10:46.718Z,98488.28
2022-07-26T16:13:53.180Z,98494.31
2022-07-26T16:17:04.046Z,98500.22
2022-07-26T16:20:07.047Z,98509.50
2022-07-26T16:23:09.665Z,98511.44
2022-07-26T16:26:11.991Z,98506.16
2022-07-26T16:29:15.861Z,98514.03
2022-07-26T16:32:18.174Z,98515.63
2022-07-26T16:35:19.766Z,98515.78
2022-07-26T16:38:22.138Z,98505.31
2022-07-26T16:41:27.003Z,98516.97
2022-07-26T16:44:30.723Z,98517.69
2022-07-26T16:47:32.705Z,98510.38
2022-07-26T16:50:34.799Z,98504.97
2022-07-26T16:53:36.707Z,98506.16
2022-07-26T16:56:38.645Z,98511.13
2022-07-26T16:59:42.455Z,98515.00
2022-07-26T17:02:44.765Z,98515.88
2022-07-26T17:05:47.206Z,98517.25
2022-07-26T17:08:51.292Z,98519.94
2022-07-26T17:11:53.402Z,98512.53
2022-07-26T17:14:56.711Z,98516.50
2022-07-26T17:17:58.455Z,98523.16
2022-07-26T17:21:01.125Z,98511.84
2022-07-26T17:24:05.668Z,98512.28
2022-07-26T17:27:07.825Z,98504.97
2022-07-26T17:30:11.848Z,98504.75
2022-07-26T17:33:13.713Z,98502.66
2022-07-26T17:36:22.774Z,98511.16
2022-07-26T17:39:24.853Z,98508.97
2022-07-26T17:42:46.610Z,98521.09
2022-07-26T17:45:55.598Z,98515.94
2022-07-26T17:48:57.379Z,98513.69
2022-07-26T17:52:03.476Z,98521.94
2022-07-26T17:55:08.878Z,98522.06
2022-07-26T17:58:13.039Z,98516.44
2022-07-26T18:01:16.313Z,98522.81
2022-07-26T18:04:19.432Z,98525.38
2022-07-26T18:07:21.512Z,98525.16
2022-07-26T18:10:23.389Z,98518.44
2022-07-26T18:13:26.027Z,98524.69
2022-07-26T18:16:29.585Z,98520.84
2022-07-26T18:19:33.109Z,98527.97
2022-07-26T18:22:34.994Z,98530.78
2022-07-26T18:25:36.877Z,98522.81
2022-07-26T18:28:38.750Z,98523.66
2022-07-26T18:31:44.468Z,98539.22
2022-07-26T18:34:51.722Z,98539.44
2022-07-26T18:37:55.251Z,98529.75
2022-07-26T18:40:57.194Z,98542.59
2022-07-26T18:43:59.227Z,98532.03
2022-07-26T18:47:03.224Z,98538.63
2022-07-26T18:50:05.747Z,98540.88
2022-07-26T18:53:08.384Z,98534.84
2022-07-26T18:56:10.212Z,98536.91
2022-07-26T18:59:12.446Z,98543.81
2022-07-26T19:02:15.834Z,98545.03
2022-07-26T19:05:18.314Z,98544.38
2022-07-26T19:08:20.141Z,98549.88
2022-07-26T19:11:21.997Z,98544.72
2022-07-26T19:14:23.743Z,98556.69
2022-07-26T19:17:27.623Z,98557.75
2022-07-26T19:20:38.605Z,98560.69
2022-07-26T19:23:40.656Z,98563.59
2022-07-26T19:26:42.393Z,98564.78
2022-07-26T19:29:43.918Z,98573.81
2022-07-26T19:32:49.104Z,98578.16
2022-07-26T19:35:51.036Z,98585.25
2022-07-26T19:38:52.802Z,98593.22
2022-07-26T19:41:54.803Z,98596.03
2022-07-26T19:44:56.712Z,98605.28
2022-07-26T19:48:00.037Z,98604.00
2022-07-26T19:51:02.031Z,98593.66
2022-07-26T19:54:03.790Z,98597.72
2022-07-26T19:57:05.550Z,98602.59
2022-07-26T20:00:08.545Z,98595.72
2022-07-26T20:03:12.149Z,98594.94
2022-07-26T20:06:15.519Z,98599.66
2022-07-26T20:09:17.352Z,98597.38
2022-07-26T20:12:19.678Z,98593.31
2022-07-26T20:15:24.241Z,98590.28
2022-07-26T20:18:30.722Z,98599.59
2022-07-26T20:21:32.575Z,98596.91
2022-07-26T20:24:34.484Z,98603.91
2022-07-26T20:27:36.660Z,98600.94
2022-07-26T20:30:40.026Z,98599.03
2022-07-26T20:33:43.260Z,98604.59
2022-07-26T20:36:45.288Z,98602.84
2022-07-26T20:39:47.152Z,98611.00
2022-07-26T20:42:50.966Z,98607.56
2022-07-26T20:45:52.895Z,98615.84
2022-07-26T20:48:56.469Z,98615.84
2022-07-26T20:51:58.358Z,98615.94
2022-07-26T20:55:00.447Z,98614.44
2022-07-26T20:58:02.427Z,98630.97
2022-07-26T21:01:04.307Z,98631.41
2022-07-26T21:04:07.737Z,98641.41
2022-07-26T21:07:10.835Z,98638.25
2022-07-26T21:10:13.008Z,98643.94
2022-07-26T21:13:14.991Z,98637.13
2022-07-26T21:16:17.017Z,98647.22
2022-07-26T21:19:20.586Z,98649.34
2022-07-26T21:22:22.416Z,98641.81
2022-07-26T21:25:24.257Z,98646.81
2022-07-26T21:28:26.994Z,98641.81
2022-07-26T21:31:28.856Z,98642.78
2022-07-26T21:34:34.260Z,98643.19
2022-07-26T21:37:38.786Z,98656.63
2022-07-26T21:40:40.730Z,98656.03
2022-07-26T21:43:42.636Z,98661.41
2022-07-26T21:46:44.656Z,98659.78
2022-07-26T21:49:52.369Z,98653.00
2022-07-26T21:52:57.089Z,98661.13
2022-07-26T21:56:03.244Z,98662.28
2022-07-26T21:59:05.250Z,98653.59
2022-07-26T22:02:07.432Z,98651.00
2022-07-26T22:05:29.773Z,98650.03
2022-07-26T22:08:31.866Z,98657.22
2022-07-26T22:11:35.004Z,98654.81
2022-07-26T22:14:37.418Z,98661.03
2022-07-26T22:17:42.084Z,98660.59
2022-07-26T22:20:47.479Z,98672.34
2022-07-26T22:23:53.331Z,98665.44
2022-07-26T22:26:55.046Z,98674.56
2022-07-26T22:29:57.058Z,98680.03
2022-07-26T22:32:59.503Z,98678.09
2022-07-26T22:36:11.300Z,98678.97
2022-07-26T22:39:20.557Z,98676.28
2022-07-26T22:42:22.484Z,98675.50
2022-07-26T22:45:24.674Z,98678.88
2022-07-26T22:48:26.631Z,98674.66
2022-07-26T22:51:29.768Z,98664.28
2022-07-26T22:54:31.811Z,98668.69
2022-07-26T22:57:33.993Z,98669.66
2022-07-26T23:00:36.029Z,98664.28
2022-07-26T23:03:38.336Z,98666.00
2022-07-26T23:06:46.381Z,98668.78
2022-07-26T23:09:49.715Z,98676.19
2022-07-26T23:12:56.825Z,98673.66
2022-07-26T23:16:01.310Z,98686.13
2022-07-26T23:19:04.570Z,98685.47
2022-07-26T23:22:12.360Z,98673.19
2022-07-26T23:25:16.592Z,98675.13
2022-07-26T23:28:35.269Z,98678.81
2022-07-26T23:31:40.188Z,98680.94
2022-07-26T23:34:42.348Z,98678.44
2022-07-26T23:37:46.073Z,98674.97
2022-07-26T23:40:49.269Z,98675.06
2022-07-26T23:43:51.034Z,98681.38
2022-07-26T23:46:52.717Z,98679.88
2022-07-26T23:49:56.590Z,98673.72
2022-07-26T23:53:00.139Z,98677.44
2022-07-26T23:56:02.560Z,98681.38
2022-07-26T23:59:07.806Z,98680.59
